Time;durP1;ratioP1;P1;durP2;ratioP2;P2;SDS_P1;SDS_P2;PMS_P1;PMS_P2;Temp;Humidity;BMP_temperature;BMP_pressure;BME280_temperature;BME280_humidity;BME280_pressure;Samples;Min_cycle;Max_cycle;Signal;HPM_P1;HPM_P2
2022/01/27 00:00:04;;;;;;;38.30;19.15;;;;;;;1.78;75.72;100990.56;2143264;82;29041;-61
2022/01/27 00:17:48;;;;;;;43.38;20.68;;;;;;;1.78;75.76;100989.24;2169365;82;27728;-60
2022/01/27 00:20:49;;;;;;;38.42;20.88;;;;;;;1.80;75.79;100980.02;2170755;82;33698;-60
2022/01/27 00:23:52;;;;;;;43.20;20.62;;;;;;;1.80;75.83;100982.20;2170712;82;29343;-61
2022/01/27 00:26:54;;;;;;;39.03;20.48;;;;;;;1.80;75.88;100972.95;2169294;82;27714;-60
2022/01/27 00:29:56;;;;;;;40.33;20.72;;;;;;;1.83;75.96;100976.02;2108417;83;28481;-62
2022/01/27 00:32:57;;;;;;;43.25;20.88;;;;;;;1.86;75.95;100964.58;2170500;81;32192;-61
2022/01/27 00:35:59;;;;;;;42.78;20.32;;;;;;;1.88;75.91;100970.75;2167314;82;34205;-60
2022/01/27 00:39:01;;;;;;;47.55;22.05;;;;;;;1.88;75.88;100959.72;2170979;81;30631;-60
2022/01/27 00:42:04;;;;;;;39.23;20.68;;;;;;;1.89;75.90;100944.77;2157743;81;27676;-62
2022/01/27 00:45:07;;;;;;;40.17;19.95;;;;;;;1.90;75.91;100954.45;2132604;83;29731;-60
2022/01/27 00:48:09;;;;;;;39.18;20.88;;;;;;;1.92;75.85;100953.55;2149031;81;31897;-60
2022/01/27 00:51:14;;;;;;;43.25;21.52;;;;;;;1.92;75.85;100953.97;2137271;82;34336;-60
2022/01/27 00:54:20;;;;;;;46.63;22.32;;;;;;;1.93;75.85;100953.98;2138849;82;29323;-60
2022/01/27 00:57:39;;;;;;;47.58;22.20;;;;;;;1.95;75.96;100955.30;2137575;82;27803;-61
2022/01/27 01:00:32;;;;;;;45.67;21.57;;;;;;;1.95;75.96;100956.61;2138969;82;29612;-61
2022/01/27 01:03:35;;;;;;;44.42;20.52;;;;;;;1.97;75.88;100956.17;2143999;82;32294;-60
2022/01/27 01:06:39;;;;;;;45.23;21.87;;;;;;;1.99;75.92;100951.77;2141221;82;34267;-61
2022/01/27 01:16:08;;;;;;;45.43;20.17;;;;;;;1.98;75.82;100935.47;2156647;82;29047;-61
2022/01/27 01:19:39;;;;;;;41.15;20.32;;;;;;;1.99;75.72;100937.23;2150225;82;31056;-61
2022/01/27 01:32:41;;;;;;;46.05;20.25;;;;;;;2.02;75.80;100923.11;2137511;82;28568;-61
2022/01/27 01:35:47;;;;;;;41.58;21.48;;;;;;;2.04;75.76;100923.98;2138886;82;31620;-61
2022/01/27 01:38:39;;;;;;;44.53;21.42;;;;;;;2.04;75.73;100923.98;2147140;81;32863;-61
2022/01/27 01:41:42;;;;;;;43.20;20.92;;;;;;;2.04;75.70;100923.98;2154181;81;29690;-61
2022/01/27 01:44:46;;;;;;;40.50;20.05;;;;;;;2.05;75.74;100920.47;2165719;81;27595;-61
2022/01/27 01:47:49;;;;;;;40.73;20.88;;;;;;;2.06;75.74;100917.83;2170800;82;29008;-61
2022/01/27 01:50:51;;;;;;;44.70;20.32;;;;;;;2.07;75.66;100912.09;2169561;82;31885;-61
2022/01/27 01:53:53;;;;;;;42.55;20.02;;;;;;;2.07;75.63;100903.70;2170831;82;34343;-61
2022/01/27 01:56:55;;;;;;;38.42;18.75;;;;;;;2.09;75.69;100905.90;2169305;82;30546;-61
2022/01/27 01:59:59;;;;;;;43.08;20.62;;;;;;;2.10;75.55;100895.77;2171673;82;28211;-61
2022/01/27 02:03:03;;;;;;;38.17;19.15;;;;;;;2.12;75.64;100899.74;2146694;82;28649;-61
2022/01/27 02:06:07;;;;;;;45.50;21.27;;;;;;;2.12;75.61;100897.09;2171584;82;31443;-61
2022/01/27 02:09:18;;;;;;;42.50;21.07;;;;;;;2.14;75.66;100895.33;2166405;82;34068;-61
2022/01/27 02:18:40;;;;;;;41.30;19.80;;;;;;;2.19;75.68;100901.91;2067990;85;29175;-61
2022/01/27 02:22:01;;;;;;;42.73;20.85;;;;;;;2.21;75.65;100906.75;2067684;85;32307;-61
2022/01/27 02:25:05;;;;;;;40.70;19.32;;;;;;;2.20;75.65;100908.95;2071267;85;32979;-60
2022/01/27 02:28:07;;;;;;;36.90;18.65;;;;;;;2.20;75.64;100898.37;2070929;85;29553;-61
2022/01/27 02:31:08;;;;;;;39.53;18.35;;;;;;;2.20;75.58;100900.56;2071241;85;27745;-61
2022/01/27 02:34:10;;;;;;;38.73;17.92;;;;;;;2.20;75.66;100899.70;2070373;85;30028;-61
2022/01/27 02:37:13;;;;;;;39.83;18.48;;;;;;;2.21;75.55;100890.42;2067655;86;31916;-61
2022/01/27 02:40:40;;;;;;;38.83;18.90;;;;;;;2.20;75.49;100896.59;2067932;86;34144;-61
2022/01/27 02:43:42;;;;;;;32.63;16.60;;;;;;;2.21;75.52;100893.53;2063462;86;29697;-62
2022/01/27 02:46:45;;;;;;;40.83;18.27;;;;;;;2.21;75.54;100875.02;2061564;86;27730;-61
2022/01/27 02:49:48;;;;;;;35.63;17.10;;;;;;;2.22;75.55;100878.97;2028093;86;28842;-61
2022/01/27 02:52:50;;;;;;;35.28;17.15;;;;;;;2.21;75.57;100871.92;2111544;83;31555;-61
2022/01/27 02:55:52;;;;;;;34.48;16.42;;;;;;;2.22;75.57;100878.97;2144188;82;34297;-61
2022/01/27 02:58:54;;;;;;;35.50;17.60;;;;;;;2.23;75.59;100872.80;2144174;82;30533;-61
2022/01/27 03:01:56;;;;;;;36.10;16.73;;;;;;;2.24;75.68;100874.98;2166997;82;27684;-61
2022/01/27 03:04:58;;;;;;;33.98;16.17;;;;;;;2.25;75.62;100877.63;2170480;81;30010;-62
2022/01/27 03:08:00;;;;;;;33.25;17.27;;;;;;;2.26;75.61;100882.03;2169598;82;31405;-62
2022/01/27 03:11:09;;;;;;;35.78;17.48;;;;;;;2.27;75.71;100879.83;2160837;82;33598;-62
2022/01/27 03:14:13;;;;;;;35.75;16.23;;;;;;;2.30;75.65;100871.45;2138606;82;29396;-62
2022/01/27 03:17:15;;;;;;;34.88;16.45;;;;;;;2.31;75.69;100867.92;2137401;82;27661;-62
2022/01/27 03:20:16;;;;;;;32.55;16.05;;;;;;;2.32;75.62;100874.97;2147056;82;29481;-62
2022/01/27 03:23:19;;;;;;;32.90;17.40;;;;;;;2.31;75.61;100866.14;2170343;82;32447;-62
2022/01/27 03:26:22;;;;;;;33.08;16.50;;;;;;;2.33;75.59;100855.54;2170514;82;34209;-62
2022/01/27 03:29:25;;;;;;;32.10;15.83;;;;;;;2.34;75.63;100855.55;2169919;82;30538;-62
2022/01/27 03:32:27;;;;;;;33.25;15.43;;;;;;;2.35;75.54;100844.09;2158671;81;27684;-62
2022/01/27 03:35:29;;;;;;;35.05;16.97;;;;;;;2.37;75.53;100837.03;2170346;82;29950;-62
2022/01/27 03:38:31;;;;;;;33.40;15.88;;;;;;;2.38;75.47;100834.81;2170662;82;31025;-62
2022/01/27 03:41:34;;;;;;;33.53;15.32;;;;;;;2.38;75.42;100833.92;2147069;82;33409;-62
2022/01/27 03:44:36;;;;;;;30.02;14.43;;;;;;;2.37;75.51;100832.16;2145952;82;29332;-63
2022/01/27 03:47:38;;;;;;;33.08;15.18;;;;;;;2.38;75.45;100825.56;2168896;82;27746;-62
2022/01/27 03:50:40;;;;;;;28.25;13.55;;;;;;;2.40;75.49;100822.89;2170129;81;29882;-63
2022/01/27 03:53:42;;;;;;;29.48;14.73;;;;;;;2.40;75.37;100822.44;2171155;81;31198;-62
2022/01/27 03:56:44;;;;;;;28.75;13.25;;;;;;;2.40;75.45;100816.28;2169979;82;32800;-62
2022/01/27 03:59:45;;;;;;;28.65;13.95;;;;;;;2.40;75.38;100811.00;2162714;82;29673;-62
2022/01/27 04:03:02;;;;;;;31.73;14.10;;;;;;;2.39;75.34;100816.75;2137266;82;27732;-62
2022/01/27 04:06:03;;;;;;;28.00;13.65;;;;;;;2.40;75.33;100805.25;2141773;82;29633;-61
2022/01/27 04:09:05;;;;;;;26.57;13.05;;;;;;;2.41;75.26;100810.97;2171044;81;32230;-61
2022/01/27 04:12:08;;;;;;;28.77;13.35;;;;;;;2.43;75.30;100807.02;2158391;81;32977;-61
2022/01/27 04:15:10;;;;;;;25.95;12.95;;;;;;;2.43;75.28;100815.80;2149434;82;30111;-60
2022/01/27 04:18:13;;;;;;;24.50;12.65;;;;;;;2.45;75.28;100800.38;2137478;82;27712;-61
2022/01/27 04:21:15;;;;;;;25.97;12.85;;;;;;;2.45;75.20;100810.95;2139228;82;29042;-61
2022/01/27 04:24:17;;;;;;;23.57;12.40;;;;;;;2.46;75.22;100812.28;2110642;83;31998;-60
2022/01/27 04:27:23;;;;;;;26.70;12.75;;;;;;;2.47;75.22;100819.33;2159214;81;33768;-60
2022/01/27 04:30:25;;;;;;;21.15;10.93;;;;;;;2.48;75.14;100805.64;2144886;82;30628;-60
2022/01/27 04:33:29;;;;;;;23.73;12.25;;;;;;;2.47;75.10;100806.11;2158179;82;27677;-60
2022/01/27 04:36:32;;;;;;;22.02;11.63;;;;;;;2.48;75.05;100801.25;2139340;82;29845;-60
2022/01/27 04:39:41;;;;;;;24.40;12.03;;;;;;;2.46;75.00;100783.20;2139315;82;32322;-60
2022/01/27 04:42:54;;;;;;;27.75;13.58;;;;;;;2.49;74.95;100782.28;2139275;81;34418;-60
2022/01/27 04:48:56;;;;;;;20.70;10.82;;;;;;;2.51;74.94;100773.89;2165612;81;27637;-60
2022/01/27 04:51:55;;;;;;;20.10;10.75;;;;;;;2.50;74.90;100769.03;2172318;81;28276;-61
2022/01/27 04:55:03;;;;;;;22.65;11.95;;;;;;;2.51;74.93;100759.34;2177490;81;32249;-61
2022/01/27 04:58:14;;;;;;;22.48;11.40;;;;;;;2.53;74.93;100776.08;2177280;80;33346;-60
2022/01/27 05:01:15;;;;;;;19.67;10.10;;;;;;;2.55;74.86;100765.91;2177708;81;30543;-60
2022/01/27 05:04:19;;;;;;;20.60;12.03;;;;;;;2.54;74.77;100766.80;2176139;81;27719;-60
2022/01/27 05:07:20;;;;;;;23.00;10.95;;;;;;;2.55;74.74;100760.62;2151324;81;30008;-62
2022/01/27 05:10:26;;;;;;;21.80;10.88;;;;;;;2.55;74.73;100757.98;2149771;81;32196;-60
2022/01/27 05:13:29;;;;;;;25.40;12.65;;;;;;;2.56;74.74;100755.77;2172386;81;34202;-60
2022/01/27 05:16:30;;;;;;;19.60;10.13;;;;;;;2.58;74.72;100742.09;2167614;81;29398;-60
2022/01/27 05:19:32;;;;;;;23.00;11.53;;;;;;;2.60;74.70;100757.92;2168755;81;27595;-60
2022/01/27 05:22:33;;;;;;;24.55;11.78;;;;;;;2.60;74.59;100746.02;2153532;81;29970;-60
2022/01/27 05:25:35;;;;;;;21.50;11.30;;;;;;;2.60;74.61;100742.06;2169217;81;31345;-60
2022/01/27 05:28:37;;;;;;;25.15;11.93;;;;;;;2.60;74.65;100740.73;2176354;81;34281;-60
2022/01/27 05:31:39;;;;;;;24.80;11.55;;;;;;;2.62;74.65;100733.66;2167921;81;30505;-60
2022/01/27 05:34:41;;;;;;;21.70;11.10;;;;;;;2.65;74.64;100722.20;2151754;81;27692;-60
2022/01/27 05:37:43;;;;;;;23.00;11.97;;;;;;;2.66;74.63;100724.81;2174750;81;29210;-60
2022/01/27 05:40:45;;;;;;;22.50;11.55;;;;;;;2.67;74.48;100721.71;2163678;81;31441;-60
2022/01/27 05:43:46;;;;;;;21.35;10.78;;;;;;;2.65;74.52;100716.91;2150337;81;33793;-60
2022/01/27 05:46:48;;;;;;;18.12;10.25;;;;;;;2.66;74.41;100715.56;2149824;81;29297;-60
2022/01/27 05:49:50;;;;;;;22.15;10.15;;;;;;;2.64;74.51;100708.54;2152041;81;27661;-61
2022/01/27 05:52:52;;;;;;;18.42;10.28;;;;;;;2.65;74.45;100705.00;2150340;81;29917;-61
2022/01/27 05:55:54;;;;;;;23.85;12.07;;;;;;;2.66;74.42;100702.33;2155108;81;30990;-60
2022/01/27 05:58:56;;;;;;;20.57;10.78;;;;;;;2.66;74.38;100701.01;2164745;81;33405;-60
2022/01/27 06:01:58;;;;;;;26.30;11.28;;;;;;;2.67;74.36;100697.90;2177494;81;29884;-60
2022/01/27 06:05:02;;;;;;;22.42;10.93;;;;;;;2.67;74.28;100704.08;2175592;81;27671;-60
2022/01/27 06:08:04;;;;;;;23.38;10.98;;;;;;;2.66;74.21;100706.30;2177001;81;30036;-61
2022/01/27 06:11:06;;;;;;;24.70;11.15;;;;;;;2.67;74.28;100706.73;2176756;81;31894;-61
2022/01/27 06:14:08;;;;;;;22.27;10.20;;;;;;;2.67;74.14;100715.98;2177509;81;34095;-61
2022/01/27 06:17:10;;;;;;;25.00;11.53;;;;;;;2.66;74.16;100712.91;2155260;81;30620;-60
2022/01/27 06:20:16;;;;;;;20.23;10.75;;;;;;;2.68;74.20;100708.91;2154664;81;27552;-60
2022/01/27 06:23:18;;;;;;;19.50;10.05;;;;;;;2.68;74.15;100710.23;2154142;81;29806;-61
2022/01/27 06:26:20;;;;;;;17.25;10.65;;;;;;;2.69;74.24;100699.66;2149834;81;32228;-60
2022/01/27 06:29:22;;;;;;;19.35;10.05;;;;;;;2.71;74.23;100711.11;2151607;81;33524;-60
2022/01/27 06:32:24;;;;;;;20.52;11.03;;;;;;;2.73;74.35;100705.78;2150407;81;30448;-60
2022/01/27 06:35:25;;;;;;;18.98;10.48;;;;;;;2.78;74.38;100697.36;2151381;81;27596;-60
2022/01/27 06:38:27;;;;;;;21.68;10.95;;;;;;;2.79;74.42;100683.24;2150084;81;29976;-60
2022/01/27 06:41:29;;;;;;;16.77;10.05;;;;;;;2.81;74.35;100677.92;2163040;81;31488;-61
2022/01/27 06:44:31;;;;;;;19.27;10.48;;;;;;;2.82;74.30;100681.00;2177447;81;33336;-60
2022/01/27 06:47:33;;;;;;;20.17;10.90;;;;;;;2.84;74.14;100691.98;2176038;81;30651;-60
2022/01/27 06:50:37;;;;;;;20.23;11.22;;;;;;;2.83;74.12;100688.91;2177115;81;27625;-60
2022/01/27 06:53:40;;;;;;;20.80;11.22;;;;;;;2.85;73.99;100684.94;2177861;81;30770;-61
2022/01/27 06:56:56;;;;;;;18.87;10.78;;;;;;;2.86;73.93;100685.37;2174776;81;31070;-60
2022/01/27 06:59:51;;;;;;;18.77;10.23;;;;;;;2.85;73.96;100686.26;2173106;81;34104;-60
2022/01/27 07:02:56;;;;;;;19.32;9.75;;;;;;;2.84;73.88;100685.37;2176271;81;29663;-61
2022/01/27 07:06:01;;;;;;;17.73;8.98;;;;;;;2.85;73.87;100680.97;2177269;81;28275;-61
2022/01/27 07:09:03;;;;;;;15.50;8.60;;;;;;;2.87;73.82;100688.45;2175735;81;29993;-61
2022/01/27 07:12:08;;;;;;;16.75;8.40;;;;;;;2.88;73.78;100680.48;2177063;81;31521;-61
2022/01/27 07:15:15;;;;;;;18.07;9.95;;;;;;;2.92;73.86;100670.72;2175485;81;30661;-61
2022/01/27 07:18:17;;;;;;;17.85;9.23;;;;;;;2.93;73.65;100662.34;2177077;81;29505;-60
2022/01/27 07:21:23;;;;;;;17.20;9.18;;;;;;;2.94;73.70;100653.52;2176443;81;27799;-61
2022/01/27 07:24:31;;;;;;;18.27;9.78;;;;;;;2.97;73.74;100635.82;2177228;81;27700;-61
2022/01/27 07:27:44;;;;;;;17.82;9.90;;;;;;;2.99;73.66;100639.33;2175742;81;32030;-61
2022/01/27 07:30:40;;;;;;;18.10;9.85;;;;;;;3.01;73.56;100645.91;2135759;83;33776;-60
2022/01/27 07:33:42;;;;;;;19.15;9.80;;;;;;;3.02;73.45;100633.11;2169384;81;29720;-60
2022/01/27 07:36:54;;;;;;;19.55;9.15;;;;;;;3.01;73.40;100633.57;2147045;81;27708;-61
2022/01/27 07:39:55;;;;;;;17.12;9.00;;;;;;;3.03;73.39;100626.92;2137278;81;28770;-61
2022/01/27 07:43:01;;;;;;;16.80;8.93;;;;;;;3.07;73.34;100629.97;2118576;82;31937;-61
2022/01/27 07:46:14;;;;;;;14.63;8.70;;;;;;;3.10;73.24;100626.39;2146813;82;33082;-63
2022/01/27 07:49:15;;;;;;;18.45;9.88;;;;;;;3.12;73.24;100623.28;2030877;86;27853;-61
2022/01/27 07:52:18;;;;;;;18.40;9.83;;;;;;;3.14;73.23;100617.09;2031756;87;27765;-61
2022/01/27 07:55:20;;;;;;;19.85;9.93;;;;;;;3.18;73.26;100604.67;2032147;87;29294;-61
2022/01/27 07:58:23;;;;;;;17.60;8.48;;;;;;;3.25;73.20;100596.19;2031561;87;31417;-60
2022/01/27 08:01:25;;;;;;;14.20;8.40;;;;;;;3.31;73.16;100589.49;2030111;87;34151;-60
2022/01/27 08:04:27;;;;;;;20.12;10.48;;;;;;;3.32;73.06;100590.78;2031450;87;30155;-60
2022/01/27 08:07:29;;;;;;;15.00;8.98;;;;;;;3.34;72.95;100588.98;2030220;87;28493;-61
2022/01/27 08:10:37;;;;;;;17.45;9.15;;;;;;;3.36;72.90;100598.69;2031281;87;29904;-61
2022/01/27 08:13:37;;;;;;;17.23;8.85;;;;;;;3.38;72.81;100599.08;2029719;87;31025;-60
2022/01/27 08:16:39;;;;;;;15.40;8.33;;;;;;;3.38;72.64;100605.70;2031346;87;33799;-60
2022/01/27 08:19:42;;;;;;;17.67;9.25;;;;;;;3.34;72.44;100603.98;2030352;87;29891;-60
2022/01/27 08:22:44;;;;;;;17.82;9.80;;;;;;;3.34;72.79;100606.20;2031633;87;27755;-60
2022/01/27 08:25:49;;;;;;;22.58;9.88;;;;;;;3.37;72.61;100584.55;2031529;87;28996;-60
2022/01/27 08:28:58;;;;;;;18.82;9.13;;;;;;;3.39;72.55;100578.78;2028815;86;32017;-61
2022/01/27 08:32:02;;;;;;;20.92;9.43;;;;;;;3.44;72.64;100557.95;2029200;87;34310;-61
2022/01/27 08:35:05;;;;;;;17.07;9.03;;;;;;;3.48;72.27;100566.24;2025636;87;29515;-61
2022/01/27 08:38:07;;;;;;;17.35;9.75;;;;;;;3.51;72.35;100558.72;1969688;88;27884;-60
2022/01/27 08:41:10;;;;;;;17.37;9.45;;;;;;;3.56;72.48;100557.31;1965871;90;28914;-60
2022/01/27 08:44:11;;;;;;;22.82;11.73;;;;;;;3.55;72.06;100564.39;1966838;90;31741;-60
2022/01/27 08:47:15;;;;;;;22.20;11.75;;;;;;;3.53;71.89;100560.00;2099932;84;34191;-59
2022/01/27 08:50:20;;;;;;;25.20;14.53;;;;;;;3.52;71.78;100548.98;2101022;84;29686;-60
2022/01/27 08:53:22;;;;;;;31.02;14.80;;;;;;;3.50;71.80;100544.58;2105113;84;27790;-61
2022/01/27 08:56:24;;;;;;;29.12;15.13;;;;;;;3.50;71.79;100539.28;2105704;83;29482;-60
2022/01/27 08:59:26;;;;;;;28.38;13.78;;;;;;;3.49;71.51;100533.56;2104933;84;31836;-64
2022/01/27 09:02:28;;;;;;;26.05;13.95;;;;;;;3.47;71.46;100521.25;2102324;83;33262;-60
2022/01/27 09:05:30;;;;;;;27.90;14.55;;;;;;;3.48;71.46;100514.59;2123984;82;30517;-60
2022/01/27 09:08:32;;;;;;;28.85;14.45;;;;;;;3.54;71.64;100514.08;2117281;83;27609;-61
2022/01/27 09:11:35;;;;;;;32.42;16.87;;;;;;;3.58;71.49;100511.80;2122623;83;29505;-60
2022/01/27 09:14:40;;;;;;;35.25;17.00;;;;;;;3.65;71.64;100516.08;2121634;83;32280;-60
2022/01/27 09:17:42;;;;;;;35.75;16.70;;;;;;;3.73;71.49;100519.48;2122891;83;34819;-61
2022/01/27 09:20:45;;;;;;;33.23;15.28;;;;;;;3.82;71.55;100511.81;2121832;83;29365;-61
2022/01/27 09:23:48;;;;;;;31.87;16.50;;;;;;;3.89;71.32;100504.16;2083785;84;27746;-60
2022/01/27 09:26:53;;;;;;;31.55;16.35;;;;;;;3.98;71.40;100500.92;2106520;83;29519;-61
2022/01/27 09:29:54;;;;;;;32.38;16.55;;;;;;;4.05;71.32;100499.92;2107212;84;31763;-61
2022/01/27 09:32:57;;;;;;;33.25;16.62;;;;;;;4.12;71.24;100490.06;2144071;83;33081;-61
2022/01/27 09:35:58;;;;;;;36.17;17.48;;;;;;;4.14;70.98;100483.81;2145321;82;29431;-61
2022/01/27 09:39:02;;;;;;;39.95;19.05;;;;;;;4.16;70.98;100475.81;2146391;82;27670;-60
2022/01/27 09:42:07;;;;;;;43.58;23.10;;;;;;;4.18;70.84;100468.27;2142910;82;29561;-63
2022/01/27 09:45:12;;;;;;;38.05;18.67;;;;;;;4.24;70.96;100465.47;2122931;83;31812;-62
2022/01/27 09:48:16;;;;;;;38.42;18.52;;;;;;;4.32;71.01;100469.76;2124289;82;32964;-62
2022/01/27 09:51:26;;;;;;;32.03;17.42;;;;;;;4.38;70.65;100449.28;2122466;83;30659;-62
2022/01/27 09:54:25;;;;;;;32.45;16.65;;;;;;;4.47;70.68;100442.91;2122953;83;27642;-61
2022/01/27 09:57:27;;;;;;;57.83;28.95;;;;;;;4.54;70.43;100446.29;2121719;83;28672;-62
2022/01/27 10:00:29;;;;;;;39.08;23.83;;;;;;;4.61;70.39;100440.39;2123064;82;31859;-62
2022/01/27 10:03:31;;;;;;;37.03;20.57;;;;;;;4.68;70.17;100449.97;2094026;83;34268;-61
2022/01/27 10:06:35;;;;;;;41.28;22.73;;;;;;;4.76;70.07;100449.79;2087646;85;29284;-62
2022/01/27 10:09:37;;;;;;;39.73;20.23;;;;;;;4.76;69.80;100441.36;2085314;84;27644;-60
2022/01/27 10:12:47;;;;;;;53.48;27.32;;;;;;;4.76;69.55;100437.37;2123796;83;30084;-61
2022/01/27 10:15:47;;;;;;;48.45;25.70;;;;;;;4.76;69.59;100423.25;2122418;83;31080;-61
2022/01/27 10:18:50;;;;;;;48.65;21.48;;;;;;;4.75;69.45;100417.05;2123908;83;33128;-62
2022/01/27 10:22:01;;;;;;;37.98;21.20;;;;;;;4.71;69.28;100415.41;2122509;83;30535;-60
2022/01/27 10:25:20;;;;;;;60.70;32.10;;;;;;;4.71;69.52;100409.63;2058295;84;28193;-60
2022/01/27 10:28:28;;;;;;;46.18;23.18;;;;;;;4.74;69.31;100407.81;2076335;84;28676;-62
2022/01/27 10:31:29;;;;;;;46.25;23.10;;;;;;;4.78;69.29;100405.52;2102247;82;28314;-60
2022/01/27 10:34:56;;;;;;;52.35;25.30;;;;;;;4.77;69.25;100398.45;2138288;83;34421;-61
2022/01/27 10:38:09;;;;;;;49.55;27.00;;;;;;;4.77;69.20;100392.67;2112453;82;29308;-61
2022/01/27 10:41:13;;;;;;;43.55;20.12;;;;;;;4.78;69.04;100382.95;2135356;82;27676;-60
2022/01/27 10:44:17;;;;;;;37.33;20.20;;;;;;;4.79;68.98;100374.94;2146201;82;28676;-61
2022/01/27 10:47:24;;;;;;;52.08;23.65;;;;;;;4.79;68.99;100366.98;2170894;81;33409;-61
2022/01/27 10:50:25;;;;;;;45.30;22.75;;;;;;;4.83;69.03;100351.41;2165576;82;32994;-61
2022/01/27 10:53:49;;;;;;;44.85;21.90;;;;;;;4.91;69.17;100360.94;2137152;82;30471;-61
2022/01/27 10:56:50;;;;;;;42.35;20.08;;;;;;;5.00;69.12;100339.48;2152006;82;27690;-61
2022/01/27 11:00:14;;;;;;;34.50;19.02;;;;;;;5.07;68.93;100346.83;2158308;81;29893;-61
2022/01/27 11:03:15;;;;;;;34.20;18.32;;;;;;;5.11;68.77;100337.88;2147447;81;31882;-61
2022/01/27 11:06:20;;;;;;;37.17;19.23;;;;;;;5.19;68.95;100346.50;2147431;82;33336;-62
2022/01/27 11:09:22;;;;;;;36.63;20.08;;;;;;;5.18;68.87;100343.42;2170948;81;30913;-66
2022/01/27 11:12:24;;;;;;;42.60;21.12;;;;;;;5.20;69.20;100334.10;2161442;81;28297;-61
2022/01/27 11:15:26;;;;;;;40.88;21.97;;;;;;;5.16;69.21;100335.95;2141006;81;29917;-61
2022/01/27 11:18:29;;;;;;;41.77;20.40;;;;;;;5.15;69.40;100332.44;2141176;82;31230;-61
2022/01/27 11:21:37;;;;;;;40.90;22.00;;;;;;;5.14;69.73;100328.47;2137236;82;32983;-61
2022/01/27 11:25:19;;;;;;;41.35;20.75;;;;;;;5.12;69.70;100315.25;2160011;81;30178;-61
2022/01/27 11:28:09;;;;;;;40.58;20.57;;;;;;;5.06;69.91;100308.77;2131727;83;27666;-61
2022/01/27 11:31:37;;;;;;;39.38;21.02;;;;;;;5.00;69.96;100299.66;2168256;81;29548;-61
2022/01/27 11:34:48;;;;;;;38.48;21.07;;;;;;;5.01;70.22;100308.04;2170761;82;31860;-60
2022/01/27 11:38:00;;;;;;;46.68;23.38;;;;;;;4.98;70.16;100301.00;2152845;82;33258;-60
2022/01/27 11:41:02;;;;;;;47.62;24.67;;;;;;;4.92;70.26;100283.93;2100418;84;29453;-60
2022/01/27 11:44:36;;;;;;;50.83;27.22;;;;;;;4.90;70.45;100273.80;2106764;84;27556;-60
2022/01/27 11:47:51;;;;;;;52.20;28.32;;;;;;;4.93;70.72;100268.42;2107168;83;28933;-61
2022/01/27 11:51:10;;;;;;;43.58;22.00;;;;;;;4.93;70.59;100262.22;2101313;84;31207;-62
2022/01/27 11:54:26;;;;;;;42.65;22.77;;;;;;;4.90;70.58;100260.53;2122092;83;34443;-61
2022/01/27 11:57:43;;;;;;;48.75;24.75;;;;;;;4.94;70.93;100261.31;2134470;83;29392;-61
2022/01/27 12:01:13;;;;;;;44.80;22.75;;;;;;;4.98;70.92;100265.63;2136815;82;27852;-61
2022/01/27 12:04:17;;;;;;;49.80;25.95;;;;;;;4.96;71.13;100264.36;2136063;83;29656;-61
2022/01/27 12:07:18;;;;;;;59.38;31.23;;;;;;;4.98;71.17;100250.56;2135235;83;32038;-60
2022/01/27 12:10:46;;;;;;;51.85;27.25;;;;;;;4.98;71.20;100251.89;2135975;83;34366;-61
2022/01/27 12:13:55;;;;;;;58.35;27.27;;;;;;;5.00;71.22;100251.87;2113206;83;30227;-62
2022/01/27 12:17:16;;;;;;;49.00;25.52;;;;;;;5.00;71.39;100247.41;2136427;83;27712;-61
2022/01/27 12:20:22;;;;;;;49.10;25.12;;;;;;;4.98;71.28;100242.59;2136378;83;29123;-61
2022/01/27 12:23:23;;;;;;;47.43;24.02;;;;;;;4.95;71.36;100240.05;2111465;83;32240;-61
2022/01/27 12:26:47;;;;;;;48.30;24.02;;;;;;;4.93;71.51;100239.22;2135512;83;33859;-60
2022/01/27 12:29:56;;;;;;;46.90;23.67;;;;;;;4.91;71.62;100226.87;2111282;84;29385;-61
2022/01/27 12:32:58;;;;;;;46.58;24.67;;;;;;;4.84;71.61;100220.44;2073427;85;27761;-61
2022/01/27 12:36:01;;;;;;;51.85;24.72;;;;;;;4.81;71.69;100217.86;2072810;85;29515;-62
2022/01/27 12:39:05;;;;;;;48.68;25.20;;;;;;;4.79;71.71;100210.86;2077748;85;32265;-61
2022/01/27 12:42:13;;;;;;;52.62;26.40;;;;;;;4.73;71.77;100210.55;2082057;85;32492;-61
2022/01/27 12:45:14;;;;;;;55.88;25.35;;;;;;;4.67;71.89;100199.64;2116177;83;30193;-61
2022/01/27 12:48:22;;;;;;;47.53;26.02;;;;;;;4.62;71.90;100202.89;2118329;83;27793;-61
2022/01/27 12:51:24;;;;;;;48.10;25.45;;;;;;;4.59;72.05;100194.13;2114879;83;28663;-61
2022/01/27 12:54:27;;;;;;;48.65;25.45;;;;;;;4.54;72.05;100187.62;2090151;84;30479;-61
2022/01/27 12:57:32;;;;;;;55.20;27.50;;;;;;;4.48;72.09;100186.45;2123836;83;34161;-61
2022/01/27 13:00:44;;;;;;;47.88;24.80;;;;;;;4.42;72.17;100179.52;2115239;84;29502;-61
2022/01/27 13:04:02;;;;;;;47.35;23.87;;;;;;;4.33;72.28;100179.30;2142952;81;27769;-60
2022/01/27 13:07:05;;;;;;;40.35;20.85;;;;;;;4.26;72.41;100167.98;2145976;81;28840;-60
2022/01/27 13:10:12;;;;;;;38.85;20.95;;;;;;;4.20;72.56;100162.87;2172802;81;31026;-60
2022/01/27 13:13:22;;;;;;;38.65;19.87;;;;;;;4.13;72.54;100161.27;2172725;81;32959;-60
2022/01/27 13:16:24;;;;;;;43.50;21.77;;;;;;;4.03;72.50;100161.09;2150237;82;30721;-60
2022/01/27 13:19:40;;;;;;;36.45;19.25;;;;;;;3.96;72.71;100163.03;2169187;82;28318;-60
2022/01/27 13:22:47;;;;;;;34.83;19.23;;;;;;;3.93;72.83;100163.95;2170418;81;28720;-59
2022/01/27 13:25:58;;;;;;;38.90;21.15;;;;;;;3.88;73.04;100164.55;2169232;82;31018;-60
2022/01/27 13:29:00;;;;;;;39.00;20.97;;;;;;;3.86;73.17;100168.11;2170326;82;34282;-61
2022/01/27 13:32:03;;;;;;;41.18;21.27;;;;;;;3.83;73.29;100157.59;2169231;82;30230;-60
2022/01/27 13:35:06;;;;;;;39.33;21.42;;;;;;;3.79;73.31;100160.33;2170783;81;27660;-60
2022/01/27 13:38:22;;;;;;;44.23;22.48;;;;;;;3.77;73.42;100160.82;2169651;82;28162;-59
2022/01/27 13:41:28;;;;;;;38.50;20.92;;;;;;;3.76;73.61;100149.80;2168437;81;32071;-59
2022/01/27 13:44:25;;;;;;;43.50;22.40;;;;;;;3.76;73.64;100157.75;2159942;82;33792;-59
2022/01/27 13:47:33;;;;;;;42.20;23.02;;;;;;;3.74;73.73;100156.91;2168571;81;30267;-58
2022/01/27 13:50:36;;;;;;;43.45;22.60;;;;;;;3.70;73.70;100159.67;2168621;82;27724;-59
2022/01/27 13:53:42;;;;;;;40.55;22.32;;;;;;;3.69;73.85;100158.79;2171028;81;29432;-61
2022/01/27 13:56:54;;;;;;;46.20;22.82;;;;;;;3.64;73.79;100159.37;2160497;81;31020;-60
2022/01/27 14:00:00;;;;;;;45.92;23.35;;;;;;;3.57;73.77;100162.59;2153906;81;33330;-61
2022/01/27 14:03:12;;;;;;;39.85;21.35;;;;;;;3.52;73.79;100155.66;2144977;81;29319;-60
2022/01/27 14:06:21;;;;;;;37.20;19.90;;;;;;;3.47;73.94;100151.36;2144638;82;27832;-62
2022/01/27 14:09:37;;;;;;;40.85;21.82;;;;;;;3.42;73.92;100143.08;2137333;82;29085;-60
2022/01/27 14:13:05;;;;;;;46.60;24.90;;;;;;;3.36;74.14;100145.89;2101286;83;31921;-60
2022/01/27 14:16:07;;;;;;;45.45;23.50;;;;;;;3.34;74.30;100140.60;2148395;82;33830;-62
2022/01/27 14:19:22;;;;;;;51.10;25.25;;;;;;;3.32;74.44;100136.68;2142623;82;29577;-60
2022/01/27 14:22:32;;;;;;;49.35;25.00;;;;;;;3.32;74.57;100141.97;2145539;82;28240;-61
2022/01/27 14:25:37;;;;;;;44.13;22.30;;;;;;;3.34;74.71;100133.98;2170432;82;30217;-63
2022/01/27 14:28:41;;;;;;;37.75;19.82;;;;;;;3.31;74.75;100142.02;2142103;82;32093;-63
2022/01/27 14:31:48;;;;;;;33.30;18.87;;;;;;;3.28;74.89;100137.64;2152985;82;33807;-61
2022/01/27 14:34:50;;;;;;;35.40;18.25;;;;;;;3.27;75.10;100134.58;2152486;82;29671;-60
2022/01/27 14:37:57;;;;;;;34.27;17.20;;;;;;;3.29;75.25;100133.23;2152935;81;28305;-61
2022/01/27 14:40:56;;;;;;;29.70;15.43;;;;;;;3.29;75.46;100135.89;2141531;81;28823;-61
2022/01/27 14:43:57;;;;;;;24.45;15.65;;;;;;;3.29;75.48;100129.27;2170264;82;31893;-62
2022/01/27 14:47:05;;;;;;;27.42;16.67;;;;;;;3.30;75.64;100127.89;2169657;82;34099;-63
2022/01/27 14:50:07;;;;;;;26.35;15.80;;;;;;;3.30;75.77;100130.55;2170792;82;30260;-61
2022/01/27 14:53:09;;;;;;;28.87;15.90;;;;;;;3.31;75.87;100126.99;2170494;82;27763;-61